sensor_id;sensor_type;location;lat;lon;timestamp;temperature;humidity
1219;DHT22;599;51.494;6.670;2022-08-24T00:01:02;20.70;99.90
1219;DHT22;599;51.494;6.670;2022-08-24T00:03:31;20.70;99.90
1219;DHT22;599;51.494;6.670;2022-08-24T00:05:58;20.70;99.90
1219;DHT22;599;51.494;6.670;2022-08-24T00:08:24;20.70;99.90
1219;DHT22;599;51.494;6.670;2022-08-24T00:10:50;20.60;99.90
1219;DHT22;599;51.494;6.670;2022-08-24T00:13:17;20.60;99.90
1219;DHT22;599;51.494;6.670;2022-08-24T00:15:44;20.60;99.90
1219;DHT22;599;51.494;6.670;2022-08-24T00:18:11;20.50;99.90
1219;DHT22;599;51.494;6.670;2022-08-24T00:20:38;20.50;99.90
1219;DHT22;599;51.494;6.670;2022-08-24T00:23:05;20.50;99.90
1219;DHT22;599;51.494;6.670;2022-08-24T00:25:32;20.40;99.90
1219;DHT22;599;51.494;6.670;2022-08-24T00:30:25;20.40;99.90
1219;DHT22;599;51.494;6.670;2022-08-24T00:32:51;20.40;99.90
1219;DHT22;599;51.494;6.670;2022-08-24T00:35:19;20.40;99.90
1219;DHT22;599;51.494;6.670;2022-08-24T00:37:47;20.30;99.90
1219;DHT22;599;51.494;6.670;2022-08-24T00:40:30;20.30;99.90
1219;DHT22;599;51.494;6.670;2022-08-24T00:43:00;20.30;99.90
1219;DHT22;599;51.494;6.670;2022-08-24T00:45:30;20.20;99.90
1219;DHT22;599;51.494;6.670;2022-08-24T00:48:04;20.20;99.90
1219;DHT22;599;51.494;6.670;2022-08-24T00:50:46;20.20;99.90
1219;DHT22;599;51.494;6.670;2022-08-24T00:53:31;20.10;99.90
1219;DHT22;599;51.494;6.670;2022-08-24T00:56:07;20.10;99.90
1219;DHT22;599;51.494;6.670;2022-08-24T00:58:39;20.10;99.90
1219;DHT22;599;51.494;6.670;2022-08-24T01:01:08;20.10;99.90
1219;DHT22;599;51.494;6.670;2022-08-24T01:03:36;20.10;99.90
1219;DHT22;599;51.494;6.670;2022-08-24T01:06:03;20.00;99.90
1219;DHT22;599;51.494;6.670;2022-08-24T01:08:30;20.00;1.00
1219;DHT22;599;51.494;6.670;2022-08-24T01:10:59;20.00;1.00
1219;DHT22;599;51.494;6.670;2022-08-24T01:13:30;20.00;1.00
1219;DHT22;599;51.494;6.670;2022-08-24T01:16:01;20.00;1.00
1219;DHT22;599;51.494;6.670;2022-08-24T01:18:28;19.90;1.00
1219;DHT22;599;51.494;6.670;2022-08-24T01:24:09;19.90;1.00
1219;DHT22;599;51.494;6.670;2022-08-24T01:26:40;19.90;1.00
1219;DHT22;599;51.494;6.670;2022-08-24T01:29:13;19.90;1.00
1219;DHT22;599;51.494;6.670;2022-08-24T01:31:41;19.80;1.00
1219;DHT22;599;51.494;6.670;2022-08-24T01:34:07;19.80;1.00
1219;DHT22;599;51.494;6.670;2022-08-24T01:36:42;19.80;1.00
1219;DHT22;599;51.494;6.670;2022-08-24T01:39:25;19.80;1.00
1219;DHT22;599;51.494;6.670;2022-08-24T01:41:54;19.70;1.00
1219;DHT22;599;51.494;6.670;2022-08-24T01:44:23;19.70;1.00
1219;DHT22;599;51.494;6.670;2022-08-24T01:46:52;19.80;1.00
1219;DHT22;599;51.494;6.670;2022-08-24T01:49:24;19.70;1.00
1219;DHT22;599;51.494;6.670;2022-08-24T01:51:51;19.70;1.00
1219;DHT22;599;51.494;6.670;2022-08-24T01:54:17;19.70;1.00
1219;DHT22;599;51.494;6.670;2022-08-24T01:56:44;19.70;1.00
1219;DHT22;599;51.494;6.670;2022-08-24T01:59:10;19.60;1.00
1219;DHT22;599;51.494;6.670;2022-08-24T02:01:46;19.60;1.00
1219;DHT22;599;51.494;6.670;2022-08-24T02:04:14;19.60;1.00
1219;DHT22;599;51.494;6.670;2022-08-24T02:06:40;19.60;1.00
1219;DHT22;599;51.494;6.670;2022-08-24T02:09:09;19.60;1.00
1219;DHT22;599;51.494;6.670;2022-08-24T02:11:37;19.50;1.00
1219;DHT22;599;51.494;6.670;2022-08-24T02:14:06;19.50;1.00
1219;DHT22;599;51.494;6.670;2022-08-24T02:16:33;19.50;1.00
1219;DHT22;599;51.494;6.670;2022-08-24T02:19:02;19.50;1.00
1219;DHT22;599;51.494;6.670;2022-08-24T02:21:28;19.50;1.00
1219;DHT22;599;51.494;6.670;2022-08-24T02:23:54;19.50;1.00
1219;DHT22;599;51.494;6.670;2022-08-24T02:26:20;19.50;1.00
1219;DHT22;599;51.494;6.670;2022-08-24T02:28:46;19.50;1.00
1219;DHT22;599;51.494;6.670;2022-08-24T02:31:13;19.40;1.00
1219;DHT22;599;51.494;6.670;2022-08-24T02:33:41;19.40;1.00
1219;DHT22;599;51.494;6.670;2022-08-24T02:36:09;19.40;1.00
1219;DHT22;599;51.494;6.670;2022-08-24T02:38:37;19.40;1.00
1219;DHT22;599;51.494;6.670;2022-08-24T02:41:09;19.40;1.00
1219;DHT22;599;51.494;6.670;2022-08-24T02:43:36;19.30;1.00
1219;DHT22;599;51.494;6.670;2022-08-24T02:46:02;19.30;1.00
1219;DHT22;599;51.494;6.670;2022-08-24T02:48:28;19.30;1.00
1219;DHT22;599;51.494;6.670;2022-08-24T02:50:55;19.30;1.00
1219;DHT22;599;51.494;6.670;2022-08-24T02:53:22;19.30;1.00
1219;DHT22;599;51.494;6.670;2022-08-24T02:55:49;19.30;1.00
1219;DHT22;599;51.494;6.670;2022-08-24T02:58:16;19.30;1.00
1219;DHT22;599;51.494;6.670;2022-08-24T03:00:47;19.30;1.00
1219;DHT22;599;51.494;6.670;2022-08-24T03:03:16;19.30;1.00
1219;DHT22;599;51.494;6.670;2022-08-24T03:05:42;19.30;1.00
1219;DHT22;599;51.494;6.670;2022-08-24T03:08:08;19.20;1.00
1219;DHT22;599;51.494;6.670;2022-08-24T03:10:34;19.20;1.00
1219;DHT22;599;51.494;6.670;2022-08-24T03:13:02;19.20;1.00
1219;DHT22;599;51.494;6.670;2022-08-24T03:15:28;19.20;1.00
1219;DHT22;599;51.494;6.670;2022-08-24T03:17:56;19.20;1.00
1219;DHT22;599;51.494;6.670;2022-08-24T03:20:26;19.10;1.00
1219;DHT22;599;51.494;6.670;2022-08-24T03:22:52;19.20;1.00
1219;DHT22;599;51.494;6.670;2022-08-24T03:25:20;19.10;1.00
1219;DHT22;599;51.494;6.670;2022-08-24T03:27:55;19.10;1.00
1219;DHT22;599;51.494;6.670;2022-08-24T03:30:22;19.10;1.00
1219;DHT22;599;51.494;6.670;2022-08-24T03:32:48;19.00;1.00
1219;DHT22;599;51.494;6.670;2022-08-24T03:35:16;19.00;1.00
1219;DHT22;599;51.494;6.670;2022-08-24T03:37:42;19.00;1.00
1219;DHT22;599;51.494;6.670;2022-08-24T03:40:11;19.00;1.00
1219;DHT22;599;51.494;6.670;2022-08-24T03:42:37;19.00;1.00
1219;DHT22;599;51.494;6.670;2022-08-24T03:45:04;18.90;1.00
1219;DHT22;599;51.494;6.670;2022-08-24T03:47:32;18.90;1.00
1219;DHT22;599;51.494;6.670;2022-08-24T03:49:58;18.90;1.00
1219;DHT22;599;51.494;6.670;2022-08-24T03:52:24;18.80;1.00
1219;DHT22;599;51.494;6.670;2022-08-24T03:54:51;18.80;1.00
1219;DHT22;599;51.494;6.670;2022-08-24T03:59:46;18.80;1.00
1219;DHT22;599;51.494;6.670;2022-08-24T04:02:12;18.80;1.00
1219;DHT22;599;51.494;6.670;2022-08-24T04:04:38;18.80;1.00
1219;DHT22;599;51.494;6.670;2022-08-24T04:07:04;18.70;1.00
1219;DHT22;599;51.494;6.670;2022-08-24T04:09:31;18.80;1.00
1219;DHT22;599;51.494;6.670;2022-08-24T04:11:57;18.70;1.00
1219;DHT22;599;51.494;6.670;2022-08-24T04:14:25;18.70;1.00
1219;DHT22;599;51.494;6.670;2022-08-24T04:16:54;18.70;1.00
1219;DHT22;599;51.494;6.670;2022-08-24T04:19:27;18.70;1.00
1219;DHT22;599;51.494;6.670;2022-08-24T04:21:54;18.70;1.00
1219;DHT22;599;51.494;6.670;2022-08-24T04:24:22;18.70;1.00
1219;DHT22;599;51.494;6.670;2022-08-24T04:26:48;18.70;1.00
1219;DHT22;599;51.494;6.670;2022-08-24T04:29:15;18.60;1.00
1219;DHT22;599;51.494;6.670;2022-08-24T04:31:48;18.70;1.00
1219;DHT22;599;51.494;6.670;2022-08-24T04:34:15;18.60;1.00
1219;DHT22;599;51.494;6.670;2022-08-24T04:36:43;18.60;1.00
1219;DHT22;599;51.494;6.670;2022-08-24T04:39:10;18.60;1.00
1219;DHT22;599;51.494;6.670;2022-08-24T04:41:59;18.60;1.00
1219;DHT22;599;51.494;6.670;2022-08-24T04:44:28;18.50;1.00
1219;DHT22;599;51.494;6.670;2022-08-24T04:46:57;18.50;1.00
1219;DHT22;599;51.494;6.670;2022-08-24T04:49:24;18.50;1.00
1219;DHT22;599;51.494;6.670;2022-08-24T04:51:53;18.60;1.00
1219;DHT22;599;51.494;6.670;2022-08-24T04:54:19;18.60;1.00
1219;DHT22;599;51.494;6.670;2022-08-24T04:56:52;18.50;1.00
1219;DHT22;599;51.494;6.670;2022-08-24T04:59:19;18.50;1.00
1219;DHT22;599;51.494;6.670;2022-08-24T05:01:47;18.60;1.00
1219;DHT22;599;51.494;6.670;2022-08-24T05:04:13;18.50;1.00
1219;DHT22;599;51.494;6.670;2022-08-24T05:06:41;18.50;1.00
1219;DHT22;599;51.494;6.670;2022-08-24T05:09:08;18.60;1.00
1219;DHT22;599;51.494;6.670;2022-08-24T05:11:38;18.60;1.00
1219;DHT22;599;51.494;6.670;2022-08-24T05:14:07;18.60;1.00
1219;DHT22;599;51.494;6.670;2022-08-24T05:16:34;18.70;1.00
1219;DHT22;599;51.494;6.670;2022-08-24T05:19:04;18.70;1.00
1219;DHT22;599;51.494;6.670;2022-08-24T05:21:32;18.70;1.00
1219;DHT22;599;51.494;6.670;2022-08-24T05:24:00;18.80;1.00
1219;DHT22;599;51.494;6.670;2022-08-24T05:26:30;18.90;1.00
1219;DHT22;599;51.494;6.670;2022-08-24T05:29:00;18.90;1.00
1219;DHT22;599;51.494;6.670;2022-08-24T05:31:33;19.00;1.00
1219;DHT22;599;51.494;6.670;2022-08-24T05:34:04;19.00;1.00
1219;DHT22;599;51.494;6.670;2022-08-24T05:36:33;19.00;1.00
1219;DHT22;599;51.494;6.670;2022-08-24T05:39:07;19.10;1.00
1219;DHT22;599;51.494;6.670;2022-08-24T05:41:35;19.10;1.00
1219;DHT22;599;51.494;6.670;2022-08-24T05:44:09;19.10;1.00
1219;DHT22;599;51.494;6.670;2022-08-24T05:46:36;19.20;1.00
1219;DHT22;599;51.494;6.670;2022-08-24T05:49:03;19.20;1.00
1219;DHT22;599;51.494;6.670;2022-08-24T05:51:31;19.30;1.00
1219;DHT22;599;51.494;6.670;2022-08-24T05:54:02;19.30;1.00
1219;DHT22;599;51.494;6.670;2022-08-24T05:56:40;19.40;1.00
1219;DHT22;599;51.494;6.670;2022-08-24T05:59:06;19.50;1.00
1219;DHT22;599;51.494;6.670;2022-08-24T06:01:32;19.60;1.00
1219;DHT22;599;51.494;6.670;2022-08-24T06:03:58;19.60;1.00
1219;DHT22;599;51.494;6.670;2022-08-24T06:06:26;19.70;1.00
1219;DHT22;599;51.494;6.670;2022-08-24T06:08:56;19.80;1.00
1219;DHT22;599;51.494;6.670;2022-08-24T06:11:33;19.90;1.00
1219;DHT22;599;51.494;6.670;2022-08-24T06:14:10;20.00;1.00
1219;DHT22;599;51.494;6.670;2022-08-24T06:16:51;20.10;1.00
1219;DHT22;599;51.494;6.670;2022-08-24T06:19:19;20.20;1.00
1219;DHT22;599;51.494;6.670;2022-08-24T06:21:48;20.30;1.00
1219;DHT22;599;51.494;6.670;2022-08-24T06:24:16;20.40;1.00
1219;DHT22;599;51.494;6.670;2022-08-24T06:26:45;20.50;1.00
1219;DHT22;599;51.494;6.670;2022-08-24T06:29:33;20.60;1.00
1219;DHT22;599;51.494;6.670;2022-08-24T06:32:15;20.80;1.00
1219;DHT22;599;51.494;6.670;2022-08-24T06:34:42;20.80;1.00
1219;DHT22;599;51.494;6.670;2022-08-24T06:37:09;20.90;1.00
1219;DHT22;599;51.494;6.670;2022-08-24T06:39:35;21.00;1.00
1219;DHT22;599;51.494;6.670;2022-08-24T06:42:01;21.20;1.00
1219;DHT22;599;51.494;6.670;2022-08-24T06:44:29;21.30;1.00
1219;DHT22;599;51.494;6.670;2022-08-24T06:47:14;21.40;1.00
1219;DHT22;599;51.494;6.670;2022-08-24T06:49:40;21.50;1.00
1219;DHT22;599;51.494;6.670;2022-08-24T06:52:07;21.60;1.00
1219;DHT22;599;51.494;6.670;2022-08-24T06:54:37;21.70;1.00
1219;DHT22;599;51.494;6.670;2022-08-24T06:57:05;21.90;1.00
1219;DHT22;599;51.494;6.670;2022-08-24T06:59:32;22.00;1.00
1219;DHT22;599;51.494;6.670;2022-08-24T07:01:59;22.10;1.00
1219;DHT22;599;51.494;6.670;2022-08-24T07:04:27;22.20;1.00
1219;DHT22;599;51.494;6.670;2022-08-24T07:07:12;22.30;99.90
1219;DHT22;599;51.494;6.670;2022-08-24T07:09:43;22.40;99.90
1219;DHT22;599;51.494;6.670;2022-08-24T07:12:10;22.60;99.90
1219;DHT22;599;51.494;6.670;2022-08-24T07:14:36;22.70;99.90
1219;DHT22;599;51.494;6.670;2022-08-24T07:17:02;22.80;99.90
1219;DHT22;599;51.494;6.670;2022-08-24T07:19:30;22.80;99.90
1219;DHT22;599;51.494;6.670;2022-08-24T07:21:58;22.90;99.90
1219;DHT22;599;51.494;6.670;2022-08-24T07:24:26;23.10;99.90
1219;DHT22;599;51.494;6.670;2022-08-24T07:26:53;23.30;99.90
1219;DHT22;599;51.494;6.670;2022-08-24T07:29:20;23.40;99.90
1219;DHT22;599;51.494;6.670;2022-08-24T07:31:48;23.40;99.90
1219;DHT22;599;51.494;6.670;2022-08-24T07:34:28;23.50;99.90
1219;DHT22;599;51.494;6.670;2022-08-24T07:36:55;23.60;99.90
1219;DHT22;599;51.494;6.670;2022-08-24T07:39:21;23.70;99.90
1219;DHT22;599;51.494;6.670;2022-08-24T07:41:48;23.80;99.90
1219;DHT22;599;51.494;6.670;2022-08-24T07:44:16;23.90;99.90
1219;DHT22;599;51.494;6.670;2022-08-24T07:46:43;24.10;99.90
1219;DHT22;599;51.494;6.670;2022-08-24T07:49:11;24.20;99.90
1219;DHT22;599;51.494;6.670;2022-08-24T07:51:38;24.20;99.90
1219;DHT22;599;51.494;6.670;2022-08-24T07:54:05;24.30;99.90
1219;DHT22;599;51.494;6.670;2022-08-24T07:56:37;24.40;99.90
1219;DHT22;599;51.494;6.670;2022-08-24T07:59:04;24.50;99.90
1219;DHT22;599;51.494;6.670;2022-08-24T08:01:30;24.50;99.90
1219;DHT22;599;51.494;6.670;2022-08-24T08:03:58;24.50;99.90
1219;DHT22;599;51.494;6.670;2022-08-24T08:06:25;24.70;99.90
1219;DHT22;599;51.494;6.670;2022-08-24T08:08:56;24.80;99.90
1219;DHT22;599;51.494;6.670;2022-08-24T08:11:23;24.90;99.90
1219;DHT22;599;51.494;6.670;2022-08-24T08:13:49;25.00;99.90
1219;DHT22;599;51.494;6.670;2022-08-24T08:16:16;25.00;99.90
1219;DHT22;599;51.494;6.670;2022-08-24T08:18:42;25.10;99.90
1219;DHT22;599;51.494;6.670;2022-08-24T08:21:12;25.20;99.90
1219;DHT22;599;51.494;6.670;2022-08-24T08:23:59;25.30;99.90
1219;DHT22;599;51.494;6.670;2022-08-24T08:26:43;25.30;99.90
1219;DHT22;599;51.494;6.670;2022-08-24T08:29:34;25.50;99.90
1219;DHT22;599;51.494;6.670;2022-08-24T08:32:03;25.60;99.90
1219;DHT22;599;51.494;6.670;2022-08-24T08:34:32;25.60;99.90
1219;DHT22;599;51.494;6.670;2022-08-24T08:36:59;25.70;99.90
1219;DHT22;599;51.494;6.670;2022-08-24T08:39:26;25.80;99.90
1219;DHT22;599;51.494;6.670;2022-08-24T08:54:19;26.30;99.90
1219;DHT22;599;51.494;6.670;2022-08-24T09:00:22;26.60;99.90
1219;DHT22;599;51.494;6.670;2022-08-24T09:06:52;26.80;99.90
1219;DHT22;599;51.494;6.670;2022-08-24T09:09:49;26.90;99.90
1219;DHT22;599;51.494;6.670;2022-08-24T09:15:42;27.20;99.90
1219;DHT22;599;51.494;6.670;2022-08-24T09:43:15;28.50;99.90
1219;DHT22;599;51.494;6.670;2022-08-24T09:49:52;28.60;96.30
1219;DHT22;599;51.494;6.670;2022-08-24T09:52:51;28.70;99.90
1219;DHT22;599;51.494;6.670;2022-08-24T09:56:04;29.20;99.90
1219;DHT22;599;51.494;6.670;2022-08-24T10:02:28;29.50;97.80
1219;DHT22;599;51.494;6.670;2022-08-24T10:05:25;29.40;93.60
1219;DHT22;599;51.494;6.670;2022-08-24T10:07:57;29.40;99.90
1219;DHT22;599;51.494;6.670;2022-08-24T10:14:07;29.50;94.80
1219;DHT22;599;51.494;6.670;2022-08-24T10:20:16;29.70;95.20
1219;DHT22;599;51.494;6.670;2022-08-24T10:28:51;30.10;86.90
1219;DHT22;599;51.494;6.670;2022-08-24T10:31:47;30.30;88.50
1219;DHT22;599;51.494;6.670;2022-08-24T10:44:08;31.00;70.60
1219;DHT22;599;51.494;6.670;2022-08-24T10:47:00;31.80;64.10
1219;DHT22;599;51.494;6.670;2022-08-24T10:52:46;33.20;53.30
1219;DHT22;599;51.494;6.670;2022-08-24T10:55:27;33.50;47.40
1219;DHT22;599;51.494;6.670;2022-08-24T10:58:36;34.50;33.30
1219;DHT22;599;51.494;6.670;2022-08-24T11:04:00;40.10;2.10
1219;DHT22;599;51.494;6.670;2022-08-24T11:06:38;40.50;1.00
1219;DHT22;599;51.494;6.670;2022-08-24T11:09:13;40.30;1.00
1219;DHT22;599;51.494;6.670;2022-08-24T11:11:45;40.70;1.00
1219;DHT22;599;51.494;6.670;2022-08-24T11:14:27;41.60;1.00
1219;DHT22;599;51.494;6.670;2022-08-24T11:17:15;43.00;1.00
1219;DHT22;599;51.494;6.670;2022-08-24T11:19:43;45.70;1.00
1219;DHT22;599;51.494;6.670;2022-08-24T11:22:36;47.90;1.00
1219;DHT22;599;51.494;6.670;2022-08-24T11:25:28;47.80;1.00
1219;DHT22;599;51.494;6.670;2022-08-24T11:28:06;48.70;1.00
1219;DHT22;599;51.494;6.670;2022-08-24T11:30:53;50.50;1.00
1219;DHT22;599;51.494;6.670;2022-08-24T11:33:33;51.50;1.00
1219;DHT22;599;51.494;6.670;2022-08-24T11:36:21;51.80;1.00
1219;DHT22;599;51.494;6.670;2022-08-24T11:39:19;52.00;1.00
1219;DHT22;599;51.494;6.670;2022-08-24T11:42:01;51.80;1.00
1219;DHT22;599;51.494;6.670;2022-08-24T11:55:36;54.30;1.00
1219;DHT22;599;51.494;6.670;2022-08-24T11:58:41;54.20;1.00
1219;DHT22;599;51.494;6.670;2022-08-24T12:01:17;53.20;1.00
1219;DHT22;599;51.494;6.670;2022-08-24T12:04:00;52.50;1.00
1219;DHT22;599;51.494;6.670;2022-08-24T12:12:36;52.50;1.00
1219;DHT22;599;51.494;6.670;2022-08-24T12:15:34;52.80;1.00
1219;DHT22;599;51.494;6.670;2022-08-24T12:18:17;52.90;1.00
1219;DHT22;599;51.494;6.670;2022-08-24T12:20:46;50.80;1.00
1219;DHT22;599;51.494;6.670;2022-08-24T12:23:21;48.40;1.00
1219;DHT22;599;51.494;6.670;2022-08-24T12:26:00;46.10;1.00
1219;DHT22;599;51.494;6.670;2022-08-24T12:28:50;43.70;1.00
1219;DHT22;599;51.494;6.670;2022-08-24T12:31:35;42.00;1.00
1219;DHT22;599;51.494;6.670;2022-08-24T12:34:26;41.00;1.00
1219;DHT22;599;51.494;6.670;2022-08-24T12:43:20;39.20;1.00
1219;DHT22;599;51.494;6.670;2022-08-24T12:45:59;38.80;1.00
1219;DHT22;599;51.494;6.670;2022-08-24T12:56:56;37.70;1.00
1219;DHT22;599;51.494;6.670;2022-08-24T12:59:39;37.50;1.00
1219;DHT22;599;51.494;6.670;2022-08-24T13:15:24;38.70;1.00
1219;DHT22;599;51.494;6.670;2022-08-24T13:31:01;37.20;1.00
1219;DHT22;599;51.494;6.670;2022-08-24T13:44:12;36.70;1.00
1219;DHT22;599;51.494;6.670;2022-08-24T13:47:14;36.50;1.00
1219;DHT22;599;51.494;6.670;2022-08-24T13:50:09;36.60;1.00
1219;DHT22;599;51.494;6.670;2022-08-24T13:53:23;36.50;1.00
1219;DHT22;599;51.494;6.670;2022-08-24T13:59:44;35.30;1.00
1219;DHT22;599;51.494;6.670;2022-08-24T14:02:39;35.20;1.00
1219;DHT22;599;51.494;6.670;2022-08-24T14:08:18;35.40;1.00
1219;DHT22;599;51.494;6.670;2022-08-24T14:25:28;35.50;1.00
1219;DHT22;599;51.494;6.670;2022-08-24T14:33:50;35.30;1.00
1219;DHT22;599;51.494;6.670;2022-08-24T14:37:15;35.40;1.00
1219;DHT22;599;51.494;6.670;2022-08-24T14:40:34;35.30;4.50
1219;DHT22;599;51.494;6.670;2022-08-24T14:46:43;34.90;1.00
1219;DHT22;599;51.494;6.670;2022-08-24T14:49:57;34.80;1.00
1219;DHT22;599;51.494;6.670;2022-08-24T14:52:53;34.70;2.30
1219;DHT22;599;51.494;6.670;2022-08-24T14:55:44;34.80;5.30
1219;DHT22;599;51.494;6.670;2022-08-24T14:59:05;34.90;1.00
1219;DHT22;599;51.494;6.670;2022-08-24T15:04:55;34.70;1.00
1219;DHT22;599;51.494;6.670;2022-08-24T15:08:02;34.60;9.20
1219;DHT22;599;51.494;6.670;2022-08-24T15:10:56;34.10;1.00
1219;DHT22;599;51.494;6.670;2022-08-24T15:16:13;33.80;1.00
1219;DHT22;599;51.494;6.670;2022-08-24T15:24:49;33.60;1.10
1219;DHT22;599;51.494;6.670;2022-08-24T15:27:58;33.60;9.50
1219;DHT22;599;51.494;6.670;2022-08-24T15:30:34;33.70;5.00
1219;DHT22;599;51.494;6.670;2022-08-24T15:33:17;33.80;2.30
1219;DHT22;599;51.494;6.670;2022-08-24T15:36:01;33.90;2.20
1219;DHT22;599;51.494;6.670;2022-08-24T15:38:37;33.80;1.00
1219;DHT22;599;51.494;6.670;2022-08-24T15:41:12;33.80;6.30
1219;DHT22;599;51.494;6.670;2022-08-24T15:46:26;33.70;11.00
1219;DHT22;599;51.494;6.670;2022-08-24T15:49:05;33.60;1.00
1219;DHT22;599;51.494;6.670;2022-08-24T15:51:47;33.40;1.00
1219;DHT22;599;51.494;6.670;2022-08-24T15:56:51;33.30;18.00
1219;DHT22;599;51.494;6.670;2022-08-24T16:10:39;33.10;22.90
1219;DHT22;599;51.494;6.670;2022-08-24T16:13:27;32.90;6.80
1219;DHT22;599;51.494;6.670;2022-08-24T16:18:59;32.70;6.30
1219;DHT22;599;51.494;6.670;2022-08-24T16:24:09;32.80;15.30
1219;DHT22;599;51.494;6.670;2022-08-24T16:34:37;32.80;29.20
1219;DHT22;599;51.494;6.670;2022-08-24T16:37:05;32.70;34.90
1219;DHT22;599;51.494;6.670;2022-08-24T16:39:31;32.70;35.00
1219;DHT22;599;51.494;6.670;2022-08-24T16:42:02;32.60;25.70
1219;DHT22;599;51.494;6.670;2022-08-24T16:44:34;32.60;21.70
1219;DHT22;599;51.494;6.670;2022-08-24T16:47:02;32.50;32.20
1219;DHT22;599;51.494;6.670;2022-08-24T16:49:29;32.50;39.20
1219;DHT22;599;51.494;6.670;2022-08-24T16:51:57;32.40;44.70
1219;DHT22;599;51.494;6.670;2022-08-24T16:54:22;32.40;38.50
1219;DHT22;599;51.494;6.670;2022-08-24T16:56:51;32.30;27.20
1219;DHT22;599;51.494;6.670;2022-08-24T16:59:26;32.20;23.10
1219;DHT22;599;51.494;6.670;2022-08-24T17:01:54;32.20;26.50
1219;DHT22;599;51.494;6.670;2022-08-24T17:04:20;32.10;37.20
1219;DHT22;599;51.494;6.670;2022-08-24T17:06:46;32.00;27.10
1219;DHT22;599;51.494;6.670;2022-08-24T17:09:16;32.00;36.20
1219;DHT22;599;51.494;6.670;2022-08-24T17:11:43;31.90;29.20
1219;DHT22;599;51.494;6.670;2022-08-24T17:14:09;31.90;19.20
1219;DHT22;599;51.494;6.670;2022-08-24T17:16:35;31.70;16.40
1219;DHT22;599;51.494;6.670;2022-08-24T17:19:05;31.70;18.90
1219;DHT22;599;51.494;6.670;2022-08-24T17:21:34;31.70;21.30
1219;DHT22;599;51.494;6.670;2022-08-24T17:24:00;31.60;22.40
1219;DHT22;599;51.494;6.670;2022-08-24T17:26:26;31.50;23.70
1219;DHT22;599;51.494;6.670;2022-08-24T17:28:52;31.50;24.00
1219;DHT22;599;51.494;6.670;2022-08-24T17:31:22;31.40;22.50
1219;DHT22;599;51.494;6.670;2022-08-24T17:33:53;31.40;31.50
1219;DHT22;599;51.494;6.670;2022-08-24T17:36:20;31.30;37.70
1219;DHT22;599;51.494;6.670;2022-08-24T17:38:49;31.30;40.80
1219;DHT22;599;51.494;6.670;2022-08-24T17:41:17;31.20;39.40
1219;DHT22;599;51.494;6.670;2022-08-24T17:43:43;31.10;37.60
1219;DHT22;599;51.494;6.670;2022-08-24T17:46:12;31.00;41.60
1219;DHT22;599;51.494;6.670;2022-08-24T17:48:42;30.90;40.50
1219;DHT22;599;51.494;6.670;2022-08-24T17:51:09;30.80;45.50
1219;DHT22;599;51.494;6.670;2022-08-24T17:53:35;30.70;43.90
1219;DHT22;599;51.494;6.670;2022-08-24T17:56:02;30.60;47.60
1219;DHT22;599;51.494;6.670;2022-08-24T17:58:29;30.50;49.30
1219;DHT22;599;51.494;6.670;2022-08-24T18:00:55;30.40;52.10
1219;DHT22;599;51.494;6.670;2022-08-24T18:03:21;30.40;48.80
1219;DHT22;599;51.494;6.670;2022-08-24T18:05:47;30.20;45.10
1219;DHT22;599;51.494;6.670;2022-08-24T18:08:13;30.10;49.00
1219;DHT22;599;51.494;6.670;2022-08-24T18:10:39;30.00;47.70
1219;DHT22;599;51.494;6.670;2022-08-24T18:13:07;29.90;52.80
1219;DHT22;599;51.494;6.670;2022-08-24T18:15:34;29.70;53.50
1219;DHT22;599;51.494;6.670;2022-08-24T18:18:03;29.60;52.90
1219;DHT22;599;51.494;6.670;2022-08-24T18:20:34;29.50;54.50
1219;DHT22;599;51.494;6.670;2022-08-24T18:23:02;29.40;56.70
1219;DHT22;599;51.494;6.670;2022-08-24T18:25:28;29.30;66.60
1219;DHT22;599;51.494;6.670;2022-08-24T18:27:55;29.20;67.50
1219;DHT22;599;51.494;6.670;2022-08-24T18:30:25;29.10;71.70
1219;DHT22;599;51.494;6.670;2022-08-24T18:32:52;29.00;66.00
1219;DHT22;599;51.494;6.670;2022-08-24T18:35:19;28.90;69.90
1219;DHT22;599;51.494;6.670;2022-08-24T18:37:46;28.70;71.40
1219;DHT22;599;51.494;6.670;2022-08-24T18:40:13;28.60;71.10
1219;DHT22;599;51.494;6.670;2022-08-24T18:42:41;28.50;68.60
1219;DHT22;599;51.494;6.670;2022-08-24T18:45:08;28.40;70.30
1219;DHT22;599;51.494;6.670;2022-08-24T18:47:36;28.30;70.00
1219;DHT22;599;51.494;6.670;2022-08-24T18:50:04;28.20;73.00
1219;DHT22;599;51.494;6.670;2022-08-24T18:52:31;28.20;73.60
1219;DHT22;599;51.494;6.670;2022-08-24T18:54:57;28.10;70.80
1219;DHT22;599;51.494;6.670;2022-08-24T18:57:23;28.00;69.40
1219;DHT22;599;51.494;6.670;2022-08-24T18:59:49;27.90;67.00
1219;DHT22;599;51.494;6.670;2022-08-24T19:02:18;27.90;70.60
1219;DHT22;599;51.494;6.670;2022-08-24T19:05:06;27.80;71.10
1219;DHT22;599;51.494;6.670;2022-08-24T19:07:37;27.80;66.90
1219;DHT22;599;51.494;6.670;2022-08-24T19:10:07;27.70;69.30
1219;DHT22;599;51.494;6.670;2022-08-24T19:12:38;27.60;69.10
1219;DHT22;599;51.494;6.670;2022-08-24T19:15:12;27.60;74.30
1219;DHT22;599;51.494;6.670;2022-08-24T19:17:38;27.50;74.80
1219;DHT22;599;51.494;6.670;2022-08-24T19:20:06;27.50;76.10
1219;DHT22;599;51.494;6.670;2022-08-24T19:22:34;27.40;77.30
1219;DHT22;599;51.494;6.670;2022-08-24T19:25:00;27.40;86.80
1219;DHT22;599;51.494;6.670;2022-08-24T19:27:29;27.30;88.70
1219;DHT22;599;51.494;6.670;2022-08-24T19:29:55;27.30;89.20
1219;DHT22;599;51.494;6.670;2022-08-24T19:32:25;27.20;90.40
1219;DHT22;599;51.494;6.670;2022-08-24T19:34:53;27.10;92.60
1219;DHT22;599;51.494;6.670;2022-08-24T19:37:20;27.10;96.00
1219;DHT22;599;51.494;6.670;2022-08-24T19:39:46;27.00;94.10
1219;DHT22;599;51.494;6.670;2022-08-24T19:42:12;26.90;95.60
1219;DHT22;599;51.494;6.670;2022-08-24T19:44:40;26.90;97.90
1219;DHT22;599;51.494;6.670;2022-08-24T19:47:24;26.80;96.40
1219;DHT22;599;51.494;6.670;2022-08-24T19:49:50;26.80;98.80
1219;DHT22;599;51.494;6.670;2022-08-24T19:52:16;26.80;97.20
1219;DHT22;599;51.494;6.670;2022-08-24T19:54:44;26.80;99.90
1219;DHT22;599;51.494;6.670;2022-08-24T19:57:34;26.70;99.90
1219;DHT22;599;51.494;6.670;2022-08-24T20:02:50;26.70;99.90
1219;DHT22;599;51.494;6.670;2022-08-24T20:05:22;26.60;99.90
1219;DHT22;599;51.494;6.670;2022-08-24T20:07:49;26.60;99.90
1219;DHT22;599;51.494;6.670;2022-08-24T20:10:18;26.50;99.90
1219;DHT22;599;51.494;6.670;2022-08-24T20:12:45;26.50;99.90
1219;DHT22;599;51.494;6.670;2022-08-24T20:15:11;26.50;99.90
1219;DHT22;599;51.494;6.670;2022-08-24T20:17:37;26.40;99.90
1219;DHT22;599;51.494;6.670;2022-08-24T20:20:08;26.40;99.90
1219;DHT22;599;51.494;6.670;2022-08-24T20:22:36;26.40;99.90
1219;DHT22;599;51.494;6.670;2022-08-24T20:25:04;26.30;99.90
1219;DHT22;599;51.494;6.670;2022-08-24T20:27:30;26.30;99.90
1219;DHT22;599;51.494;6.670;2022-08-24T20:29:58;26.20;99.90
1219;DHT22;599;51.494;6.670;2022-08-24T20:32:25;26.20;99.90
1219;DHT22;599;51.494;6.670;2022-08-24T20:34:52;26.10;99.90
1219;DHT22;599;51.494;6.670;2022-08-24T20:37:22;26.10;99.90
1219;DHT22;599;51.494;6.670;2022-08-24T20:39:51;26.00;99.90
1219;DHT22;599;51.494;6.670;2022-08-24T20:42:24;26.00;99.90
1219;DHT22;599;51.494;6.670;2022-08-24T20:44:51;25.90;99.90
1219;DHT22;599;51.494;6.670;2022-08-24T20:47:19;25.90;99.90
1219;DHT22;599;51.494;6.670;2022-08-24T20:49:45;25.80;99.90
1219;DHT22;599;51.494;6.670;2022-08-24T20:52:11;25.70;99.90
1219;DHT22;599;51.494;6.670;2022-08-24T20:54:37;25.70;99.90
1219;DHT22;599;51.494;6.670;2022-08-24T20:57:05;25.60;99.90